sensor_id;sensor_type;location;lat;lon;timestamp;P1;durP1;ratioP1;P2;durP2;ratioP2
36315;SDS011;22343;50.820;2.666;2023-04-25T00:00:59;15.57;;;6.30;;
36315;SDS011;22343;50.820;2.666;2023-04-25T00:03:43;12.10;;;6.27;;
36315;SDS011;22343;50.820;2.666;2023-04-25T00:06:31;11.23;;;6.07;;
36315;SDS011;22343;50.820;2.666;2023-04-25T00:09:16;10.90;;;5.80;;
36315;SDS011;22343;50.820;2.666;2023-04-25T00:12:01;11.43;;;6.40;;
36315;SDS011;22343;50.820;2.666;2023-04-25T00:14:45;11.60;;;6.00;;
36315;SDS011;22343;50.820;2.666;2023-04-25T00:17:30;8.90;;;5.87;;
36315;SDS011;22343;50.820;2.666;2023-04-25T00:20:15;13.13;;;6.90;;
36315;SDS011;22343;50.820;2.666;2023-04-25T00:23:00;12.37;;;7.17;;
36315;SDS011;22343;50.820;2.666;2023-04-25T00:25:44;13.80;;;7.03;;
36315;SDS011;22343;50.820;2.666;2023-04-25T00:28:29;12.50;;;6.60;;
36315;SDS011;22343;50.820;2.666;2023-04-25T00:31:14;13.80;;;6.40;;
36315;SDS011;22343;50.820;2.666;2023-04-25T00:33:58;12.70;;;6.47;;
36315;SDS011;22343;50.820;2.666;2023-04-25T00:36:43;14.10;;;6.63;;
36315;SDS011;22343;50.820;2.666;2023-04-25T00:39:27;16.33;;;6.43;;
36315;SDS011;22343;50.820;2.666;2023-04-25T00:42:12;12.83;;;7.07;;
36315;SDS011;22343;50.820;2.666;2023-04-25T00:44:56;18.60;;;7.30;;
36315;SDS011;22343;50.820;2.666;2023-04-25T00:47:41;19.40;;;7.30;;
36315;SDS011;22343;50.820;2.666;2023-04-25T00:50:26;14.00;;;7.00;;
36315;SDS011;22343;50.820;2.666;2023-04-25T00:53:10;13.00;;;7.40;;
36315;SDS011;22343;50.820;2.666;2023-04-25T00:55:55;13.40;;;6.80;;
36315;SDS011;22343;50.820;2.666;2023-04-25T00:58:40;14.97;;;6.27;;
36315;SDS011;22343;50.820;2.666;2023-04-25T01:01:27;12.50;;;6.07;;
36315;SDS011;22343;50.820;2.666;2023-04-25T01:04:12;16.10;;;5.30;;
36315;SDS011;22343;50.820;2.666;2023-04-25T01:06:57;11.67;;;4.77;;
36315;SDS011;22343;50.820;2.666;2023-04-25T01:09:42;13.40;;;5.27;;
36315;SDS011;22343;50.820;2.666;2023-04-25T01:12:26;11.47;;;4.87;;
36315;SDS011;22343;50.820;2.666;2023-04-25T01:15:10;10.70;;;4.47;;
36315;SDS011;22343;50.820;2.666;2023-04-25T01:17:55;12.20;;;4.83;;
36315;SDS011;22343;50.820;2.666;2023-04-25T01:20:39;11.73;;;5.27;;
36315;SDS011;22343;50.820;2.666;2023-04-25T01:23:26;11.93;;;4.63;;
36315;SDS011;22343;50.820;2.666;2023-04-25T01:26:11;9.53;;;4.67;;
36315;SDS011;22343;50.820;2.666;2023-04-25T01:28:55;12.83;;;5.17;;
36315;SDS011;22343;50.820;2.666;2023-04-25T01:31:40;12.17;;;4.70;;
36315;SDS011;22343;50.820;2.666;2023-04-25T01:34:24;9.77;;;5.23;;
36315;SDS011;22343;50.820;2.666;2023-04-25T01:37:09;12.20;;;4.80;;
36315;SDS011;22343;50.820;2.666;2023-04-25T01:39:53;12.87;;;5.40;;
36315;SDS011;22343;50.820;2.666;2023-04-25T01:42:39;13.20;;;4.67;;
36315;SDS011;22343;50.820;2.666;2023-04-25T01:45:25;10.27;;;4.87;;
36315;SDS011;22343;50.820;2.666;2023-04-25T01:48:10;10.80;;;5.10;;
36315;SDS011;22343;50.820;2.666;2023-04-25T01:50:56;11.87;;;4.77;;
36315;SDS011;22343;50.820;2.666;2023-04-25T01:53:40;11.93;;;4.90;;
36315;SDS011;22343;50.820;2.666;2023-04-25T01:56:29;15.03;;;6.00;;
36315;SDS011;22343;50.820;2.666;2023-04-25T01:59:14;11.73;;;4.70;;
36315;SDS011;22343;50.820;2.666;2023-04-25T02:01:58;15.37;;;5.67;;
36315;SDS011;22343;50.820;2.666;2023-04-25T02:04:42;11.77;;;4.87;;
36315;SDS011;22343;50.820;2.666;2023-04-25T02:07:27;13.27;;;5.23;;
36315;SDS011;22343;50.820;2.666;2023-04-25T02:10:11;11.83;;;5.10;;
36315;SDS011;22343;50.820;2.666;2023-04-25T02:12:56;12.43;;;5.03;;
36315;SDS011;22343;50.820;2.666;2023-04-25T02:15:41;8.60;;;4.70;;
36315;SDS011;22343;50.820;2.666;2023-04-25T02:18:26;11.63;;;5.33;;
36315;SDS011;22343;50.820;2.666;2023-04-25T02:21:10;13.57;;;4.83;;
36315;SDS011;22343;50.820;2.666;2023-04-25T02:23:55;6.67;;;4.63;;
36315;SDS011;22343;50.820;2.666;2023-04-25T02:26:40;9.43;;;4.83;;
36315;SDS011;22343;50.820;2.666;2023-04-25T02:29:24;10.73;;;5.00;;
36315;SDS011;22343;50.820;2.666;2023-04-25T02:32:08;9.47;;;4.57;;
36315;SDS011;22343;50.820;2.666;2023-04-25T02:34:53;11.87;;;5.00;;
36315;SDS011;22343;50.820;2.666;2023-04-25T02:37:38;10.87;;;4.77;;
36315;SDS011;22343;50.820;2.666;2023-04-25T02:40:23;11.73;;;4.77;;
36315;SDS011;22343;50.820;2.666;2023-04-25T02:43:07;11.67;;;4.70;;
36315;SDS011;22343;50.820;2.666;2023-04-25T02:45:52;11.27;;;5.13;;
36315;SDS011;22343;50.820;2.666;2023-04-25T02:48:36;7.27;;;4.60;;
36315;SDS011;22343;50.820;2.666;2023-04-25T02:51:20;14.60;;;5.50;;
36315;SDS011;22343;50.820;2.666;2023-04-25T02:54:04;10.80;;;5.10;;
36315;SDS011;22343;50.820;2.666;2023-04-25T02:56:50;11.97;;;4.97;;
36315;SDS011;22343;50.820;2.666;2023-04-25T02:59:34;10.10;;;4.90;;
36315;SDS011;22343;50.820;2.666;2023-04-25T03:02:18;8.93;;;4.83;;
36315;SDS011;22343;50.820;2.666;2023-04-25T03:05:03;11.23;;;4.37;;
36315;SDS011;22343;50.820;2.666;2023-04-25T03:07:48;9.67;;;4.43;;
36315;SDS011;22343;50.820;2.666;2023-04-25T03:10:32;14.23;;;4.80;;
36315;SDS011;22343;50.820;2.666;2023-04-25T03:13:17;8.67;;;4.57;;
36315;SDS011;22343;50.820;2.666;2023-04-25T03:16:01;8.97;;;4.47;;
36315;SDS011;22343;50.820;2.666;2023-04-25T03:18:45;12.20;;;4.50;;
36315;SDS011;22343;50.820;2.666;2023-04-25T03:21:30;7.93;;;4.30;;
36315;SDS011;22343;50.820;2.666;2023-04-25T03:24:16;9.07;;;4.33;;
36315;SDS011;22343;50.820;2.666;2023-04-25T03:27:00;10.67;;;4.60;;
36315;SDS011;22343;50.820;2.666;2023-04-25T03:29:45;10.53;;;4.60;;
36315;SDS011;22343;50.820;2.666;2023-04-25T03:32:29;11.40;;;4.67;;
36315;SDS011;22343;50.820;2.666;2023-04-25T03:35:14;9.33;;;4.47;;
36315;SDS011;22343;50.820;2.666;2023-04-25T03:37:58;9.13;;;4.60;;
36315;SDS011;22343;50.820;2.666;2023-04-25T03:40:43;12.77;;;4.93;;
36315;SDS011;22343;50.820;2.666;2023-04-25T03:43:27;9.13;;;4.17;;
36315;SDS011;22343;50.820;2.666;2023-04-25T03:46:11;9.97;;;4.30;;
36315;SDS011;22343;50.820;2.666;2023-04-25T03:48:56;13.43;;;4.70;;
36315;SDS011;22343;50.820;2.666;2023-04-25T03:51:40;10.90;;;4.80;;
36315;SDS011;22343;50.820;2.666;2023-04-25T03:54:24;10.27;;;4.97;;
36315;SDS011;22343;50.820;2.666;2023-04-25T03:57:08;11.20;;;4.63;;
36315;SDS011;22343;50.820;2.666;2023-04-25T03:59:54;12.13;;;5.00;;
36315;SDS011;22343;50.820;2.666;2023-04-25T04:02:38;10.73;;;5.23;;
36315;SDS011;22343;50.820;2.666;2023-04-25T04:05:22;15.53;;;5.30;;
36315;SDS011;22343;50.820;2.666;2023-04-25T04:08:07;11.40;;;5.00;;
36315;SDS011;22343;50.820;2.666;2023-04-25T04:10:51;10.43;;;4.77;;
36315;SDS011;22343;50.820;2.666;2023-04-25T04:13:35;14.20;;;4.87;;
36315;SDS011;22343;50.820;2.666;2023-04-25T04:16:20;10.43;;;5.20;;
36315;SDS011;22343;50.820;2.666;2023-04-25T04:19:04;11.27;;;4.90;;
36315;SDS011;22343;50.820;2.666;2023-04-25T04:21:49;12.37;;;5.40;;
36315;SDS011;22343;50.820;2.666;2023-04-25T04:24:33;10.40;;;4.57;;
36315;SDS011;22343;50.820;2.666;2023-04-25T04:27:18;10.63;;;5.13;;
36315;SDS011;22343;50.820;2.666;2023-04-25T04:30:03;9.90;;;4.87;;
36315;SDS011;22343;50.820;2.666;2023-04-25T04:32:48;12.30;;;4.67;;
36315;SDS011;22343;50.820;2.666;2023-04-25T04:35:33;9.90;;;4.00;;
36315;SDS011;22343;50.820;2.666;2023-04-25T04:38:17;9.40;;;3.97;;
36315;SDS011;22343;50.820;2.666;2023-04-25T04:41:02;9.40;;;3.80;;
36315;SDS011;22343;50.820;2.666;2023-04-25T04:43:47;10.67;;;4.40;;
36315;SDS011;22343;50.820;2.666;2023-04-25T04:46:32;15.63;;;4.73;;
36315;SDS011;22343;50.820;2.666;2023-04-25T04:49:21;9.53;;;4.17;;
36315;SDS011;22343;50.820;2.666;2023-04-25T04:52:05;9.53;;;4.40;;
36315;SDS011;22343;50.820;2.666;2023-04-25T04:54:50;10.63;;;5.33;;
36315;SDS011;22343;50.820;2.666;2023-04-25T04:57:34;11.03;;;4.73;;
36315;SDS011;22343;50.820;2.666;2023-04-25T05:00:20;12.00;;;4.80;;
36315;SDS011;22343;50.820;2.666;2023-04-25T05:03:04;9.80;;;5.13;;
36315;SDS011;22343;50.820;2.666;2023-04-25T05:05:49;14.80;;;5.60;;
36315;SDS011;22343;50.820;2.666;2023-04-25T05:08:33;16.80;;;6.07;;
36315;SDS011;22343;50.820;2.666;2023-04-25T05:11:18;10.53;;;4.97;;
36315;SDS011;22343;50.820;2.666;2023-04-25T05:14:03;11.37;;;4.80;;
36315;SDS011;22343;50.820;2.666;2023-04-25T05:16:47;8.10;;;4.70;;
36315;SDS011;22343;50.820;2.666;2023-04-25T05:19:32;14.47;;;5.60;;
36315;SDS011;22343;50.820;2.666;2023-04-25T05:22:16;11.23;;;4.90;;
36315;SDS011;22343;50.820;2.666;2023-04-25T05:25:01;12.63;;;5.20;;
36315;SDS011;22343;50.820;2.666;2023-04-25T05:27:46;10.33;;;4.80;;
36315;SDS011;22343;50.820;2.666;2023-04-25T05:30:30;11.03;;;5.20;;
36315;SDS011;22343;50.820;2.666;2023-04-25T05:33:14;11.87;;;4.73;;
36315;SDS011;22343;50.820;2.666;2023-04-25T05:35:59;11.00;;;5.00;;
36315;SDS011;22343;50.820;2.666;2023-04-25T05:38:44;9.63;;;4.73;;
36315;SDS011;22343;50.820;2.666;2023-04-25T05:41:28;8.27;;;4.30;;
36315;SDS011;22343;50.820;2.666;2023-04-25T05:44:12;8.20;;;4.17;;
36315;SDS011;22343;50.820;2.666;2023-04-25T05:46:57;9.67;;;4.40;;
36315;SDS011;22343;50.820;2.666;2023-04-25T05:49:41;9.03;;;3.97;;
36315;SDS011;22343;50.820;2.666;2023-04-25T05:52:26;12.73;;;4.23;;
36315;SDS011;22343;50.820;2.666;2023-04-25T05:55:10;10.50;;;4.10;;
36315;SDS011;22343;50.820;2.666;2023-04-25T05:57:54;9.73;;;4.20;;
36315;SDS011;22343;50.820;2.666;2023-04-25T06:00:39;13.77;;;4.83;;
36315;SDS011;22343;50.820;2.666;2023-04-25T06:03:25;12.20;;;5.57;;
36315;SDS011;22343;50.820;2.666;2023-04-25T06:06:10;12.00;;;5.30;;
36315;SDS011;22343;50.820;2.666;2023-04-25T06:08:55;9.30;;;5.27;;
36315;SDS011;22343;50.820;2.666;2023-04-25T06:11:40;16.07;;;5.90;;
36315;SDS011;22343;50.820;2.666;2023-04-25T06:14:24;9.60;;;4.77;;
36315;SDS011;22343;50.820;2.666;2023-04-25T06:17:08;11.80;;;5.40;;
36315;SDS011;22343;50.820;2.666;2023-04-25T06:19:52;10.47;;;5.20;;
36315;SDS011;22343;50.820;2.666;2023-04-25T06:22:37;13.17;;;5.40;;
36315;SDS011;22343;50.820;2.666;2023-04-25T06:25:21;12.73;;;5.10;;
36315;SDS011;22343;50.820;2.666;2023-04-25T06:28:05;13.27;;;4.73;;
36315;SDS011;22343;50.820;2.666;2023-04-25T06:30:50;10.97;;;4.77;;
36315;SDS011;22343;50.820;2.666;2023-04-25T06:33:35;8.90;;;4.93;;
36315;SDS011;22343;50.820;2.666;2023-04-25T06:36:23;14.37;;;5.20;;
36315;SDS011;22343;50.820;2.666;2023-04-25T06:39:09;9.87;;;4.73;;
36315;SDS011;22343;50.820;2.666;2023-04-25T06:41:53;15.53;;;4.70;;
36315;SDS011;22343;50.820;2.666;2023-04-25T06:44:37;9.57;;;4.83;;
36315;SDS011;22343;50.820;2.666;2023-04-25T06:47:22;11.00;;;4.77;;
36315;SDS011;22343;50.820;2.666;2023-04-25T06:50:06;7.77;;;4.10;;
36315;SDS011;22343;50.820;2.666;2023-04-25T06:52:51;10.67;;;4.60;;
36315;SDS011;22343;50.820;2.666;2023-04-25T06:55:35;10.07;;;4.30;;
36315;SDS011;22343;50.820;2.666;2023-04-25T06:58:19;9.63;;;4.50;;
36315;SDS011;22343;50.820;2.666;2023-04-25T07:01:04;8.53;;;4.10;;
36315;SDS011;22343;50.820;2.666;2023-04-25T07:03:49;8.30;;;4.23;;
36315;SDS011;22343;50.820;2.666;2023-04-25T07:06:33;10.13;;;3.80;;
36315;SDS011;22343;50.820;2.666;2023-04-25T07:09:17;7.63;;;3.50;;
36315;SDS011;22343;50.820;2.666;2023-04-25T07:12:02;9.23;;;3.60;;
36315;SDS011;22343;50.820;2.666;2023-04-25T07:14:47;7.07;;;3.03;;
36315;SDS011;22343;50.820;2.666;2023-04-25T07:17:32;4.83;;;3.27;;
36315;SDS011;22343;50.820;2.666;2023-04-25T07:20:17;7.60;;;2.77;;
36315;SDS011;22343;50.820;2.666;2023-04-25T07:23:01;4.37;;;2.50;;
36315;SDS011;22343;50.820;2.666;2023-04-25T07:25:46;7.77;;;2.57;;
36315;SDS011;22343;50.820;2.666;2023-04-25T07:28:30;8.03;;;2.50;;
36315;SDS011;22343;50.820;2.666;2023-04-25T07:31:14;5.13;;;2.33;;
36315;SDS011;22343;50.820;2.666;2023-04-25T07:34:01;6.17;;;2.40;;
36315;SDS011;22343;50.820;2.666;2023-04-25T07:36:46;5.93;;;2.20;;
36315;SDS011;22343;50.820;2.666;2023-04-25T07:39:30;5.60;;;2.40;;
36315;SDS011;22343;50.820;2.666;2023-04-25T07:42:15;5.07;;;2.60;;
36315;SDS011;22343;50.820;2.666;2023-04-25T07:45:00;3.67;;;1.90;;
36315;SDS011;22343;50.820;2.666;2023-04-25T07:47:45;7.03;;;2.27;;
36315;SDS011;22343;50.820;2.666;2023-04-25T07:50:29;4.37;;;2.20;;
36315;SDS011;22343;50.820;2.666;2023-04-25T07:53:13;4.40;;;1.70;;
36315;SDS011;22343;50.820;2.666;2023-04-25T07:55:58;3.90;;;2.27;;
36315;SDS011;22343;50.820;2.666;2023-04-25T07:58:42;4.97;;;2.20;;
36315;SDS011;22343;50.820;2.666;2023-04-25T08:01:27;7.67;;;2.50;;
36315;SDS011;22343;50.820;2.666;2023-04-25T08:04:12;5.87;;;2.27;;
36315;SDS011;22343;50.820;2.666;2023-04-25T08:06:56;2.23;;;1.57;;
36315;SDS011;22343;50.820;2.666;2023-04-25T08:09:41;3.30;;;1.77;;
36315;SDS011;22343;50.820;2.666;2023-04-25T08:12:25;4.87;;;1.90;;
36315;SDS011;22343;50.820;2.666;2023-04-25T08:15:10;4.17;;;1.83;;
36315;SDS011;22343;50.820;2.666;2023-04-25T08:17:55;4.93;;;2.10;;
36315;SDS011;22343;50.820;2.666;2023-04-25T08:20:39;2.70;;;1.80;;
36315;SDS011;22343;50.820;2.666;2023-04-25T08:23:24;4.33;;;2.10;;
36315;SDS011;22343;50.820;2.666;2023-04-25T08:26:09;5.77;;;2.10;;
36315;SDS011;22343;50.820;2.666;2023-04-25T08:28:53;4.90;;;2.50;;
36315;SDS011;22343;50.820;2.666;2023-04-25T08:31:37;4.13;;;1.90;;
36315;SDS011;22343;50.820;2.666;2023-04-25T08:34:21;3.33;;;2.43;;
36315;SDS011;22343;50.820;2.666;2023-04-25T08:37:06;3.63;;;1.80;;
36315;SDS011;22343;50.820;2.666;2023-04-25T08:39:50;4.33;;;1.47;;
36315;SDS011;22343;50.820;2.666;2023-04-25T08:42:37;4.67;;;1.70;;
36315;SDS011;22343;50.820;2.666;2023-04-25T08:45:22;4.00;;;2.00;;
36315;SDS011;22343;50.820;2.666;2023-04-25T08:48:13;3.20;;;1.57;;
36315;SDS011;22343;50.820;2.666;2023-04-25T08:50:58;2.80;;;1.90;;
36315;SDS011;22343;50.820;2.666;2023-04-25T08:53:46;4.40;;;1.97;;
36315;SDS011;22343;50.820;2.666;2023-04-25T08:56:33;4.90;;;1.73;;
36315;SDS011;22343;50.820;2.666;2023-04-25T08:59:19;2.60;;;1.70;;
36315;SDS011;22343;50.820;2.666;2023-04-25T09:02:04;4.70;;;1.80;;
36315;SDS011;22343;50.820;2.666;2023-04-25T09:04:48;4.40;;;1.60;;
36315;SDS011;22343;50.820;2.666;2023-04-25T09:07:33;2.70;;;1.73;;
36315;SDS011;22343;50.820;2.666;2023-04-25T09:10:18;3.23;;;1.80;;
36315;SDS011;22343;50.820;2.666;2023-04-25T09:13:06;2.87;;;1.60;;
36315;SDS011;22343;50.820;2.666;2023-04-25T09:15:57;3.40;;;1.57;;
36315;SDS011;22343;50.820;2.666;2023-04-25T09:18:41;3.43;;;1.90;;
36315;SDS011;22343;50.820;2.666;2023-04-25T09:21:26;5.17;;;1.97;;
36315;SDS011;22343;50.820;2.666;2023-04-25T09:24:11;5.37;;;2.17;;
36315;SDS011;22343;50.820;2.666;2023-04-25T09:26:56;9.53;;;2.23;;
36315;SDS011;22343;50.820;2.666;2023-04-25T09:29:40;5.00;;;2.33;;
36315;SDS011;22343;50.820;2.666;2023-04-25T09:32:26;5.70;;;1.90;;
36315;SDS011;22343;50.820;2.666;2023-04-25T09:35:10;5.00;;;2.03;;
36315;SDS011;22343;50.820;2.666;2023-04-25T09:38:09;3.97;;;2.00;;
36315;SDS011;22343;50.820;2.666;2023-04-25T09:40:54;3.90;;;2.17;;
36315;SDS011;22343;50.820;2.666;2023-04-25T09:43:39;4.20;;;2.00;;
36315;SDS011;22343;50.820;2.666;2023-04-25T09:46:24;6.50;;;2.17;;
36315;SDS011;22343;50.820;2.666;2023-04-25T09:49:09;5.60;;;1.77;;
36315;SDS011;22343;50.820;2.666;2023-04-25T09:51:57;5.73;;;2.00;;
36315;SDS011;22343;50.820;2.666;2023-04-25T09:54:42;3.20;;;1.77;;
36315;SDS011;22343;50.820;2.666;2023-04-25T09:57:28;5.67;;;2.17;;
36315;SDS011;22343;50.820;2.666;2023-04-25T10:00:12;3.83;;;1.80;;
36315;SDS011;22343;50.820;2.666;2023-04-25T10:02:57;4.40;;;1.80;;
36315;SDS011;22343;50.820;2.666;2023-04-25T10:05:45;4.10;;;2.23;;
36315;SDS011;22343;50.820;2.666;2023-04-25T10:08:31;5.60;;;1.70;;
36315;SDS011;22343;50.820;2.666;2023-04-25T10:11:17;4.30;;;2.00;;
36315;SDS011;22343;50.820;2.666;2023-04-25T10:14:02;3.00;;;2.00;;
36315;SDS011;22343;50.820;2.666;2023-04-25T10:16:47;6.13;;;2.17;;
36315;SDS011;22343;50.820;2.666;2023-04-25T10:19:31;5.63;;;2.30;;
36315;SDS011;22343;50.820;2.666;2023-04-25T10:23:04;2.60;;;2.03;;
36315;SDS011;22343;50.820;2.666;2023-04-25T10:25:25;4.90;;;2.20;;
36315;SDS011;22343;50.820;2.666;2023-04-25T10:28:10;3.87;;;2.10;;
36315;SDS011;22343;50.820;2.666;2023-04-25T10:31:01;3.50;;;1.87;;
36315;SDS011;22343;50.820;2.666;2023-04-25T10:33:49;4.83;;;2.20;;
36315;SDS011;22343;50.820;2.666;2023-04-25T10:36:34;6.07;;;2.20;;
36315;SDS011;22343;50.820;2.666;2023-04-25T10:39:22;4.63;;;2.00;;
36315;SDS011;22343;50.820;2.666;2023-04-25T10:42:08;3.90;;;2.30;;
36315;SDS011;22343;50.820;2.666;2023-04-25T10:45:04;5.97;;;2.13;;
36315;SDS011;22343;50.820;2.666;2023-04-25T10:47:49;7.70;;;2.43;;
36315;SDS011;22343;50.820;2.666;2023-04-25T10:50:37;6.53;;;2.33;;
36315;SDS011;22343;50.820;2.666;2023-04-25T10:53:24;5.77;;;2.20;;
36315;SDS011;22343;50.820;2.666;2023-04-25T10:56:31;4.10;;;1.90;;
36315;SDS011;22343;50.820;2.666;2023-04-25T10:59:28;5.47;;;2.20;;
36315;SDS011;22343;50.820;2.666;2023-04-25T11:02:12;5.60;;;2.27;;
36315;SDS011;22343;50.820;2.666;2023-04-25T11:04:57;4.77;;;2.13;;
36315;SDS011;22343;50.820;2.666;2023-04-25T11:07:49;4.23;;;2.17;;
36315;SDS011;22343;50.820;2.666;2023-04-25T11:10:35;3.17;;;1.57;;
36315;SDS011;22343;50.820;2.666;2023-04-25T11:13:20;6.27;;;2.63;;
36315;SDS011;22343;50.820;2.666;2023-04-25T11:16:06;5.03;;;2.33;;
36315;SDS011;22343;50.820;2.666;2023-04-25T11:18:52;4.87;;;1.80;;
36315;SDS011;22343;50.820;2.666;2023-04-25T11:21:36;5.00;;;2.17;;
36315;SDS011;22343;50.820;2.666;2023-04-25T11:24:25;5.23;;;1.87;;
36315;SDS011;22343;50.820;2.666;2023-04-25T11:27:13;4.43;;;2.00;;
36315;SDS011;22343;50.820;2.666;2023-04-25T11:29:57;1.70;;;1.60;;
36315;SDS011;22343;50.820;2.666;2023-04-25T11:32:42;2.33;;;1.77;;
36315;SDS011;22343;50.820;2.666;2023-04-25T11:35:29;1.90;;;1.70;;
36315;SDS011;22343;50.820;2.666;2023-04-25T11:38:14;2.37;;;1.53;;
36315;SDS011;22343;50.820;2.666;2023-04-25T11:40:58;3.47;;;1.80;;
36315;SDS011;22343;50.820;2.666;2023-04-25T11:43:43;4.50;;;1.97;;
36315;SDS011;22343;50.820;2.666;2023-04-25T11:46:28;4.30;;;1.97;;
36315;SDS011;22343;50.820;2.666;2023-04-25T11:49:12;3.27;;;1.77;;
36315;SDS011;22343;50.820;2.666;2023-04-25T11:51:57;5.50;;;2.10;;
36315;SDS011;22343;50.820;2.666;2023-04-25T11:54:42;3.83;;;2.13;;
36315;SDS011;22343;50.820;2.666;2023-04-25T11:57:30;3.53;;;1.73;;
36315;SDS011;22343;50.820;2.666;2023-04-25T12:00:16;4.23;;;2.10;;
36315;SDS011;22343;50.820;2.666;2023-04-25T12:03:02;3.60;;;1.63;;
36315;SDS011;22343;50.820;2.666;2023-04-25T12:05:47;7.23;;;1.97;;
36315;SDS011;22343;50.820;2.666;2023-04-25T12:08:31;3.73;;;2.30;;
36315;SDS011;22343;50.820;2.666;2023-04-25T12:11:20;8.83;;;2.47;;
36315;SDS011;22343;50.820;2.666;2023-04-25T12:14:05;5.77;;;2.20;;
36315;SDS011;22343;50.820;2.666;2023-04-25T12:16:50;6.43;;;2.80;;
36315;SDS011;22343;50.820;2.666;2023-04-25T12:19:35;4.60;;;2.00;;
36315;SDS011;22343;50.820;2.666;2023-04-25T12:22:21;6.07;;;2.40;;
36315;SDS011;22343;50.820;2.666;2023-04-25T12:25:07;2.63;;;2.10;;
36315;SDS011;22343;50.820;2.666;2023-04-25T12:27:51;6.77;;;2.30;;
36315;SDS011;22343;50.820;2.666;2023-04-25T12:33:40;5.90;;;2.67;;
36315;SDS011;22343;50.820;2.666;2023-04-25T12:36:26;6.87;;;2.03;;
36315;SDS011;22343;50.820;2.666;2023-04-25T12:39:14;5.83;;;2.30;;
36315;SDS011;22343;50.820;2.666;2023-04-25T12:42:03;6.00;;;2.23;;
36315;SDS011;22343;50.820;2.666;2023-04-25T12:44:48;5.53;;;2.37;;
36315;SDS011;22343;50.820;2.666;2023-04-25T12:47:32;4.93;;;2.40;;
36315;SDS011;22343;50.820;2.666;2023-04-25T12:50:19;6.60;;;2.30;;
36315;SDS011;22343;50.820;2.666;2023-04-25T12:53:03;5.53;;;2.27;;
36315;SDS011;22343;50.820;2.666;2023-04-25T12:55:48;4.03;;;1.83;;
36315;SDS011;22343;50.820;2.666;2023-04-25T12:58:32;3.67;;;2.30;;
36315;SDS011;22343;50.820;2.666;2023-04-25T13:01:17;3.50;;;2.00;;
36315;SDS011;22343;50.820;2.666;2023-04-25T13:04:02;6.10;;;2.40;;
36315;SDS011;22343;50.820;2.666;2023-04-25T13:06:46;4.47;;;2.30;;
36315;SDS011;22343;50.820;2.666;2023-04-25T13:09:31;4.43;;;2.20;;
36315;SDS011;22343;50.820;2.666;2023-04-25T13:12:15;3.93;;;2.30;;
36315;SDS011;22343;50.820;2.666;2023-04-25T13:15:00;4.73;;;2.10;;
36315;SDS011;22343;50.820;2.666;2023-04-25T13:17:44;3.93;;;2.30;;
36315;SDS011;22343;50.820;2.666;2023-04-25T13:20:28;5.03;;;2.20;;
36315;SDS011;22343;50.820;2.666;2023-04-25T13:23:12;4.40;;;2.27;;
36315;SDS011;22343;50.820;2.666;2023-04-25T13:25:57;3.57;;;1.90;;
36315;SDS011;22343;50.820;2.666;2023-04-25T13:28:42;6.53;;;2.33;;
36315;SDS011;22343;50.820;2.666;2023-04-25T13:31:26;5.73;;;2.43;;
36315;SDS011;22343;50.820;2.666;2023-04-25T13:34:10;4.47;;;2.20;;
36315;SDS011;22343;50.820;2.666;2023-04-25T13:36:56;3.47;;;2.10;;
36315;SDS011;22343;50.820;2.666;2023-04-25T13:39:40;5.67;;;2.40;;
36315;SDS011;22343;50.820;2.666;2023-04-25T13:42:25;5.03;;;2.30;;
36315;SDS011;22343;50.820;2.666;2023-04-25T13:45:09;5.40;;;2.00;;
36315;SDS011;22343;50.820;2.666;2023-04-25T13:47:54;2.47;;;1.93;;
36315;SDS011;22343;50.820;2.666;2023-04-25T13:50:39;4.17;;;1.93;;
36315;SDS011;22343;50.820;2.666;2023-04-25T13:53:23;6.23;;;2.60;;
36315;SDS011;22343;50.820;2.666;2023-04-25T13:56:07;5.00;;;2.00;;
36315;SDS011;22343;50.820;2.666;2023-04-25T13:58:52;6.47;;;2.20;;
36315;SDS011;22343;50.820;2.666;2023-04-25T14:01:36;5.87;;;2.63;;
36315;SDS011;22343;50.820;2.666;2023-04-25T14:04:21;4.60;;;2.30;;
36315;SDS011;22343;50.820;2.666;2023-04-25T14:07:05;5.60;;;2.17;;
36315;SDS011;22343;50.820;2.666;2023-04-25T14:09:50;5.37;;;2.37;;
36315;SDS011;22343;50.820;2.666;2023-04-25T14:12:34;4.40;;;2.33;;
36315;SDS011;22343;50.820;2.666;2023-04-25T14:15:19;4.67;;;2.20;;
36315;SDS011;22343;50.820;2.666;2023-04-25T14:18:04;5.67;;;2.40;;
36315;SDS011;22343;50.820;2.666;2023-04-25T14:20:49;3.00;;;1.93;;
36315;SDS011;22343;50.820;2.666;2023-04-25T14:23:33;3.60;;;2.00;;
36315;SDS011;22343;50.820;2.666;2023-04-25T14:26:18;3.37;;;2.13;;
36315;SDS011;22343;50.820;2.666;2023-04-25T14:29:06;4.80;;;2.07;;
36315;SDS011;22343;50.820;2.666;2023-04-25T14:31:51;5.80;;;2.40;;
36315;SDS011;22343;50.820;2.666;2023-04-25T14:34:35;6.13;;;2.10;;
36315;SDS011;22343;50.820;2.666;2023-04-25T14:37:19;4.57;;;2.27;;
36315;SDS011;22343;50.820;2.666;2023-04-25T14:40:04;6.27;;;2.53;;
36315;SDS011;22343;50.820;2.666;2023-04-25T14:42:49;6.97;;;2.47;;
36315;SDS011;22343;50.820;2.666;2023-04-25T14:45:35;3.80;;;1.83;;
36315;SDS011;22343;50.820;2.666;2023-04-25T14:48:19;4.70;;;2.33;;
36315;SDS011;22343;50.820;2.666;2023-04-25T14:51:03;2.27;;;1.80;;
36315;SDS011;22343;50.820;2.666;2023-04-25T14:53:48;4.03;;;1.90;;
36315;SDS011;22343;50.820;2.666;2023-04-25T14:56:32;5.07;;;1.93;;
36315;SDS011;22343;50.820;2.666;2023-04-25T14:59:17;5.17;;;2.30;;
36315;SDS011;22343;50.820;2.666;2023-04-25T15:02:01;3.40;;;2.07;;
36315;SDS011;22343;50.820;2.666;2023-04-25T15:04:46;4.50;;;2.00;;
36315;SDS011;22343;50.820;2.666;2023-04-25T15:07:30;3.20;;;2.00;;
36315;SDS011;22343;50.820;2.666;2023-04-25T15:10:16;4.00;;;2.30;;
36315;SDS011;22343;50.820;2.666;2023-04-25T15:13:01;5.50;;;2.30;;
36315;SDS011;22343;50.820;2.666;2023-04-25T15:15:47;3.47;;;1.70;;
36315;SDS011;22343;50.820;2.666;2023-04-25T15:18:34;4.53;;;2.20;;
36315;SDS011;22343;50.820;2.666;2023-04-25T15:21:19;3.37;;;1.87;;
36315;SDS011;22343;50.820;2.666;2023-04-25T15:24:03;4.87;;;2.10;;
36315;SDS011;22343;50.820;2.666;2023-04-25T15:26:48;2.37;;;1.80;;
36315;SDS011;22343;50.820;2.666;2023-04-25T15:29:33;4.93;;;2.00;;
36315;SDS011;22343;50.820;2.666;2023-04-25T15:32:17;4.57;;;2.00;;
36315;SDS011;22343;50.820;2.666;2023-04-25T15:35:05;5.40;;;1.90;;
36315;SDS011;22343;50.820;2.666;2023-04-25T15:37:50;4.40;;;1.93;;
36315;SDS011;22343;50.820;2.666;2023-04-25T15:40:35;6.70;;;2.30;;
36315;SDS011;22343;50.820;2.666;2023-04-25T15:43:19;4.77;;;2.00;;
36315;SDS011;22343;50.820;2.666;2023-04-25T15:46:04;4.40;;;1.73;;
36315;SDS011;22343;50.820;2.666;2023-04-25T15:48:49;5.60;;;2.03;;
36315;SDS011;22343;50.820;2.666;2023-04-25T15:51:34;4.73;;;1.70;;
36315;SDS011;22343;50.820;2.666;2023-04-25T15:54:18;3.50;;;1.80;;
36315;SDS011;22343;50.820;2.666;2023-04-25T15:57:02;5.20;;;2.20;;
36315;SDS011;22343;50.820;2.666;2023-04-25T15:59:47;3.87;;;1.90;;
36315;SDS011;22343;50.820;2.666;2023-04-25T16:02:32;4.30;;;2.20;;
36315;SDS011;22343;50.820;2.666;2023-04-25T16:05:16;5.40;;;2.60;;
36315;SDS011;22343;50.820;2.666;2023-04-25T16:08:01;2.80;;;1.80;;
36315;SDS011;22343;50.820;2.666;2023-04-25T16:10:47;5.87;;;2.37;;
36315;SDS011;22343;50.820;2.666;2023-04-25T16:13:32;6.53;;;2.80;;
36315;SDS011;22343;50.820;2.666;2023-04-25T16:16:17;7.10;;;2.30;;
36315;SDS011;22343;50.820;2.666;2023-04-25T16:19:02;3.43;;;2.20;;
36315;SDS011;22343;50.820;2.666;2023-04-25T16:21:46;5.57;;;2.03;;
36315;SDS011;22343;50.820;2.666;2023-04-25T16:24:31;2.67;;;1.90;;
36315;SDS011;22343;50.820;2.666;2023-04-25T16:27:15;6.80;;;2.00;;
36315;SDS011;22343;50.820;2.666;2023-04-25T16:30:00;5.17;;;2.63;;
36315;SDS011;22343;50.820;2.666;2023-04-25T16:32:45;5.33;;;2.30;;